Terminal Aerodrome Forecast
Issued by NWS

Home | Current Version | Previous Version | Text Only | Print | Product List | Glossary On
Versions: 1 2 3 4 5 6 7 8 9 10 11 12 13 14 15 16
000
FTUS46 KLOX 190200 AAA
TAFSBA
TAF AMD
KSBA 190205Z 1902/1924 11006KT P6SM SKC
     FM190400 VRB03KT P6SM SKC
     FM190900 09005KT P6SM OVC015
     FM191700 18005KT P6SM OVC020
     FM192100 24007KT P6SM BKN025=

USA.gov is the U.S. government's official web portal to all federal, state and local government web resources and services.